Time;durP1;ratioP1;P1;durP2;ratioP2;P2;SDS_P1;SDS_P2;PMS_P1;PMS_P2;Temp;Humidity;BMP_temperature;BMP_pressure;BME280_temperature;BME280_humidity;BME280_pressure;Samples;Min_cycle;Max_cycle;Signal;HPM_P1;HPM_P2
2023/06/12 00:00:41;;;;;;;7.85;4.65;;;;;;;24.25;54.04;101417.88;5088974;28;20048;-45
2023/06/12 00:03:07;;;;;;;6.13;4.88;;;;;;;24.21;54.52;101424.97;5088085;28;20031;-44
2023/06/12 00:05:32;;;;;;;5.93;4.60;;;;;;;24.14;54.61;101423.50;5090978;28;20024;-48
2023/06/12 00:07:58;;;;;;;5.75;4.55;;;;;;;24.10;55.32;101428.72;5090973;28;20024;-44
2023/06/12 00:10:24;;;;;;;11.25;4.82;;;;;;;24.11;55.32;101419.34;5075370;28;20085;-44
2023/06/12 00:12:50;;;;;;;8.27;5.28;;;;;;;24.07;55.05;101420.97;5069395;28;20087;-48
2023/06/12 00:15:15;;;;;;;8.10;4.70;;;;;;;23.99;55.37;101416.75;5075745;28;20039;-48
2023/06/12 00:17:42;;;;;;;10.88;4.78;;;;;;;23.91;55.88;101421.88;5089379;28;20107;-46
2023/06/12 00:20:08;;;;;;;6.43;4.20;;;;;;;23.88;56.10;101414.97;5075872;28;20529;-46
2023/06/12 00:22:39;;;;;;;11.73;4.45;;;;;;;23.82;55.94;101418.75;5070550;28;20117;-46
2023/06/12 00:25:06;;;;;;;7.53;4.45;;;;;;;23.72;55.36;101421.38;5068971;28;20214;-46
2023/06/12 00:27:32;;;;;;;9.15;4.63;;;;;;;23.62;56.07;101425.63;5070575;28;20035;-48
2023/06/12 00:29:57;;;;;;;9.50;4.60;;;;;;;23.63;56.06;101426.47;5080499;28;20035;-46
2023/06/12 00:32:23;;;;;;;7.32;4.65;;;;;;;23.55;56.96;101429.66;5088484;28;20039;-45
2023/06/12 00:34:48;;;;;;;8.68;4.78;;;;;;;23.52;56.47;101433.75;5071010;28;20032;-46
2023/06/12 00:37:14;;;;;;;7.68;4.57;;;;;;;23.47;56.34;101432.84;5081543;28;20121;-45
2023/06/12 00:39:39;;;;;;;6.45;4.28;;;;;;;23.44;56.45;101432.25;5072934;28;20028;-44
2023/06/12 00:42:05;;;;;;;5.32;4.43;;;;;;;23.39;55.84;101439.59;5072467;28;20107;-45
2023/06/12 00:44:31;;;;;;;8.98;4.32;;;;;;;23.34;56.16;101434.84;5081134;28;20032;-47
2023/06/12 00:46:56;;;;;;;6.50;4.55;;;;;;;23.38;55.95;101433.28;5074809;28;20505;-47
2023/06/12 00:49:22;;;;;;;8.82;4.50;;;;;;;23.26;56.20;101434.47;5088766;28;20028;-49
2023/06/12 00:51:47;;;;;;;10.55;5.07;;;;;;;23.25;56.88;101428.16;5089772;28;20053;-45
2023/06/12 00:54:13;;;;;;;10.55;4.30;;;;;;;23.27;56.43;101436.94;5091027;28;20024;-46
2023/06/12 00:56:39;;;;;;;7.60;4.45;;;;;;;23.16;56.63;101435.97;5090876;28;20051;-46
2023/06/12 00:59:06;;;;;;;7.50;4.43;;;;;;;23.13;57.30;101441.13;5090376;28;20048;-47
2023/06/12 01:01:32;;;;;;;7.87;4.70;;;;;;;23.04;56.98;101442.63;5090905;28;20040;-44
2023/06/12 01:03:57;;;;;;;6.60;5.38;;;;;;;23.04;57.53;101446.22;5089542;28;20081;-46
2023/06/12 01:06:33;;;;;;;5.50;4.43;;;;;;;22.96;57.76;101442.00;5089275;28;20453;-45
2023/06/12 01:09:36;;;;;;;5.60;4.55;;;;;;;22.90;57.85;101440.19;5088888;28;20027;-47
2023/06/12 01:12:03;;;;;;;9.95;5.07;;;;;;;22.92;58.10;101443.53;5084907;28;20040;-45
2023/06/12 01:14:28;;;;;;;10.40;4.75;;;;;;;22.91;58.69;101447.38;5089961;28;20024;-49
2023/06/12 01:16:58;;;;;;;5.00;4.20;;;;;;;22.77;58.94;101446.00;5089914;28;20024;-47
2023/06/12 01:19:24;;;;;;;6.60;4.55;;;;;;;22.75;59.42;101450.94;5083854;28;20115;-47
2023/06/12 01:21:52;;;;;;;6.95;4.80;;;;;;;22.68;59.56;101450.25;5090602;28;20459;-46
2023/06/12 01:24:27;;;;;;;6.72;4.50;;;;;;;22.56;59.98;101453.91;5089806;28;20378;-45
2023/06/12 01:26:58;;;;;;;7.25;4.60;;;;;;;22.51;60.61;101444.72;5091529;28;20036;-46
2023/06/12 01:29:50;;;;;;;11.25;4.13;;;;;;;22.49;61.21;101450.50;5090777;28;20161;-47
2023/06/12 01:32:16;;;;;;;8.40;5.13;;;;;;;22.46;61.38;101459.22;5089099;28;20351;-44
2023/06/12 01:34:56;;;;;;;7.60;4.57;;;;;;;22.37;61.93;101454.38;5084047;28;20028;-45
2023/06/12 01:37:52;;;;;;;6.82;4.50;;;;;;;22.30;62.28;101459.97;5089525;28;20032;-47
2023/06/12 01:40:18;;;;;;;7.45;4.78;;;;;;;22.17;62.99;101452.03;5065732;28;20044;-45
2023/06/12 01:42:44;;;;;;;8.27;4.50;;;;;;;22.22;63.64;101450.25;5076072;28;20032;-46
2023/06/12 01:45:10;;;;;;;9.75;5.00;;;;;;;22.10;63.97;101444.78;5075871;28;20397;-45
2023/06/12 01:47:36;;;;;;;8.90;4.97;;;;;;;22.00;64.99;101450.06;5082817;28;20055;-45
2023/06/12 01:50:03;;;;;;;7.68;4.88;;;;;;;21.96;65.63;101451.63;5084403;28;20020;-48
2023/06/12 01:52:28;;;;;;;9.70;4.53;;;;;;;21.91;66.33;101451.53;5089622;28;20064;-47
2023/06/12 01:54:58;;;;;;;6.75;4.63;;;;;;;21.97;66.66;101445.06;5076132;28;20466;-46
2023/06/12 01:57:23;;;;;;;5.45;4.68;;;;;;;21.95;67.09;101455.44;5082180;28;20523;-44
2023/06/12 01:59:49;;;;;;;5.45;4.32;;;;;;;21.93;67.29;101449.34;5087054;28;20052;-47
2023/06/12 02:02:15;;;;;;;10.05;4.63;;;;;;;21.97;67.60;101450.56;5089892;28;20078;-46
2023/06/12 02:04:42;;;;;;;13.60;5.05;;;;;;;21.91;68.02;101457.84;5092943;28;20111;-49
2023/06/12 02:07:08;;;;;;;9.10;4.78;;;;;;;21.89;68.32;101457.25;5093184;28;20043;-47
2023/06/12 02:09:34;;;;;;;9.18;4.90;;;;;;;21.91;68.56;101455.09;5084632;28;20390;-46
2023/06/12 02:12:01;;;;;;;8.35;4.60;;;;;;;21.81;69.13;101446.66;5076938;28;20027;-44
2023/06/12 02:14:27;;;;;;;6.32;4.68;;;;;;;21.82;69.18;101455.72;5093188;28;20055;-47
2023/06/12 02:16:55;;;;;;;8.00;4.85;;;;;;;21.82;69.13;101451.06;5092733;28;20073;-45
2023/06/12 02:19:25;;;;;;;6.15;4.78;;;;;;;21.78;70.26;101452.63;5093313;28;20038;-45
2023/06/12 02:21:53;;;;;;;8.95;4.90;;;;;;;21.77;69.94;101455.59;5084174;28;20508;-45
2023/06/12 02:24:18;;;;;;;8.60;4.93;;;;;;;21.77;70.79;101455.59;5052961;28;20039;-43
2023/06/12 02:26:43;;;;;;;10.98;5.57;;;;;;;21.69;70.36;101451.31;5073442;28;20028;-45
2023/06/12 02:29:10;;;;;;;8.55;4.85;;;;;;;21.65;71.41;101447.41;5081566;28;20068;-44
2023/06/12 02:31:36;;;;;;;9.73;5.28;;;;;;;21.62;71.13;101439.69;5081527;28;20038;-46
2023/06/12 02:34:01;;;;;;;5.20;4.28;;;;;;;21.55;72.15;101428.84;5075753;28;20111;-48
2023/06/12 02:36:28;;;;;;;7.60;4.80;;;;;;;21.50;72.63;101444.34;5072826;28;20082;-49
2023/06/12 02:38:53;;;;;;;8.80;5.20;;;;;;;21.41;72.32;101441.16;5085328;28;20539;-48
2023/06/12 02:41:18;;;;;;;10.38;5.18;;;;;;;21.36;72.66;101444.56;5092717;28;20036;-46
2023/06/12 02:43:44;;;;;;;8.13;5.00;;;;;;;21.33;72.88;101445.03;5092356;28;20517;-46
2023/06/12 02:46:09;;;;;;;7.40;4.72;;;;;;;21.36;73.06;101443.75;5092572;28;20482;-47
2023/06/12 02:48:35;;;;;;;9.70;4.53;;;;;;;21.41;72.40;101441.97;5091375;28;20390;-46
2023/06/12 02:51:00;;;;;;;7.85;4.70;;;;;;;21.39;72.32;101441.38;5079883;28;20479;-47
2023/06/12 02:53:25;;;;;;;10.85;5.10;;;;;;;21.39;72.81;101437.81;5072655;28;20418;-46
2023/06/12 02:55:51;;;;;;;6.47;4.85;;;;;;;21.35;72.41;101437.41;5072826;28;20495;-44
2023/06/12 02:58:17;;;;;;;9.23;5.38;;;;;;;21.33;72.62;101445.03;5073023;28;20033;-48
2023/06/12 03:00:43;;;;;;;10.20;5.07;;;;;;;21.31;72.35;101440.88;5070028;28;20045;-44
2023/06/12 03:03:08;;;;;;;8.48;4.68;;;;;;;21.35;71.58;101442.88;5072419;28;20036;-44
2023/06/12 03:05:34;;;;;;;8.32;4.80;;;;;;;21.33;72.37;101444.19;5070671;28;20040;-46
2023/06/12 03:08:02;;;;;;;8.57;5.30;;;;;;;21.32;71.99;101442.53;5071694;28;20020;-43
2023/06/12 03:10:28;;;;;;;10.18;4.80;;;;;;;21.29;72.54;101443.00;5077994;28;20028;-48
2023/06/12 03:12:54;;;;;;;6.32;4.60;;;;;;;21.32;72.40;101448.84;5091630;28;20040;-44
2023/06/12 03:15:19;;;;;;;7.22;5.20;;;;;;;21.33;72.80;101442.31;5092448;28;20098;-46
2023/06/12 03:17:44;;;;;;;8.63;5.00;;;;;;;21.30;72.99;101447.41;5090477;28;20039;-43
2023/06/12 03:20:11;;;;;;;10.50;4.97;;;;;;;21.25;73.64;101448.16;5091616;28;20450;-47
2023/06/12 03:22:36;;;;;;;9.50;5.18;;;;;;;21.20;74.29;101446.13;5092207;28;20020;-45
2023/06/12 03:25:02;;;;;;;8.93;5.40;;;;;;;21.16;74.90;101449.56;5092485;28;20386;-46
2023/06/12 03:27:29;;;;;;;9.68;5.47;;;;;;;21.12;75.96;101451.94;5090962;28;20363;-44
2023/06/12 03:29:55;;;;;;;7.97;5.40;;;;;;;21.16;75.58;101449.56;5090495;28;20474;-44
2023/06/12 03:32:20;;;;;;;10.50;4.82;;;;;;;21.17;75.74;101452.06;5073401;28;20028;-45
2023/06/12 03:34:47;;;;;;;10.13;4.97;;;;;;;21.14;75.58;101452.53;5083303;28;20539;-46
2023/06/12 03:37:12;;;;;;;8.90;5.30;;;;;;;21.12;76.03;101454.69;5077260;28;20114;-45
2023/06/12 03:39:38;;;;;;;9.65;5.50;;;;;;;21.12;75.81;101454.69;5072367;28;20056;-46
2023/06/12 03:42:03;;;;;;;11.75;5.13;;;;;;;21.10;76.12;101458.72;5071025;28;20138;-46
2023/06/12 03:44:28;;;;;;;9.07;5.03;;;;;;;21.06;76.47;101461.09;5072617;28;20016;-45
2023/06/12 03:46:54;;;;;;;7.82;4.90;;;;;;;21.05;76.86;101464.91;5085381;28;20032;-48
2023/06/12 03:49:20;;;;;;;9.13;5.13;;;;;;;21.06;77.09;101469.28;5077153;28;20389;-46
2023/06/12 03:51:46;;;;;;;7.20;5.20;;;;;;;21.03;77.58;101467.03;5072909;28;20119;-46
2023/06/12 03:54:11;;;;;;;7.60;4.80;;;;;;;21.00;77.93;101468.34;5069235;28;20159;-45
2023/06/12 03:56:37;;;;;;;7.57;4.50;;;;;;;20.96;78.81;101466.34;5087667;28;20546;-44
2023/06/12 03:59:02;;;;;;;6.30;5.07;;;;;;;20.93;80.02;101472.25;5089096;28;20139;-47
2023/06/12 04:01:27;;;;;;;9.52;4.82;;;;;;;20.91;81.76;101472.50;5086856;28;20024;-45
2023/06/12 04:03:56;;;;;;;10.38;5.55;;;;;;;20.91;83.04;101475.25;5089697;28;20521;-46
2023/06/12 04:06:22;;;;;;;8.25;5.68;;;;;;;20.93;82.49;101480.47;5089340;28;20032;-45
2023/06/12 04:08:48;;;;;;;10.57;5.55;;;;;;;20.95;83.71;101478.34;5088531;28;20079;-45
2023/06/12 04:11:14;;;;;;;12.70;4.88;;;;;;;20.97;83.98;101479.78;5071490;28;21115;-44
2023/06/12 04:13:40;;;;;;;11.00;5.18;;;;;;;20.98;85.37;101480.59;5069082;28;20039;-46
2023/06/12 04:16:07;;;;;;;10.32;5.00;;;;;;;20.99;85.07;101483.09;5067926;28;20537;-45
2023/06/12 04:18:32;;;;;;;15.15;5.97;;;;;;;21.01;85.54;101483.72;5066968;28;20024;-46
2023/06/12 04:21:00;;;;;;;8.32;5.50;;;;;;;21.00;85.62;101481.19;5067983;28;20055;-44
2023/06/12 04:23:29;;;;;;;9.85;5.50;;;;;;;20.94;86.63;101482.97;5069186;28;20549;-46
2023/06/12 04:26:01;;;;;;;10.63;4.88;;;;;;;20.93;86.77;101481.31;5069283;28;20032;-46
2023/06/12 04:28:28;;;;;;;12.73;5.43;;;;;;;20.90;87.27;101479.03;5070051;28;20124;-43
2023/06/12 04:30:54;;;;;;;9.88;4.93;;;;;;;20.87;88.55;101489.63;5087813;28;20040;-45
2023/06/12 04:33:20;;;;;;;11.18;5.90;;;;;;;20.95;87.29;101492.00;5089099;28;20385;-44
2023/06/12 04:35:46;;;;;;;11.25;4.55;;;;;;;21.03;86.22;101483.47;5087951;28;20090;-45
2023/06/12 04:38:12;;;;;;;11.32;5.53;;;;;;;21.00;86.86;101489.41;5083230;28;20024;-44
2023/06/12 04:40:37;;;;;;;11.85;5.25;;;;;;;21.09;85.55;101485.28;5080225;28;20472;-45
2023/06/12 04:43:06;;;;;;;9.05;5.05;;;;;;;21.19;85.40;101490.97;5078262;28;20435;-46
2023/06/12 04:45:33;;;;;;;11.27;5.05;;;;;;;21.24;84.55;101488.34;5091519;28;20024;-46
2023/06/12 04:47:58;;;;;;;13.27;5.35;;;;;;;21.34;83.99;101489.69;5073287;28;20190;-45
2023/06/12 04:50:25;;;;;;;9.60;5.13;;;;;;;21.40;83.06;101486.00;5079567;28;20027;-44
2023/06/12 04:52:52;;;;;;;7.93;5.35;;;;;;;21.41;84.04;101485.78;5069410;28;20016;-45
2023/06/12 04:55:22;;;;;;;7.55;5.45;;;;;;;21.46;84.17;101487.81;5071298;28;20036;-45
2023/06/12 04:57:52;;;;;;;8.68;5.25;;;;;;;21.40;84.68;101488.75;5069490;28;20078;-47
2023/06/12 05:00:18;;;;;;;12.10;5.32;;;;;;;21.42;84.80;101489.34;5087024;28;20460;-43
2023/06/12 05:02:44;;;;;;;8.07;5.40;;;;;;;21.35;83.96;101486.69;5077723;28;20028;-44
2023/06/12 05:05:10;;;;;;;9.70;5.35;;;;;;;21.36;84.54;101495.75;5077841;28;20081;-45
2023/06/12 05:07:35;;;;;;;5.78;4.78;;;;;;;21.37;83.50;101489.19;5090829;28;20383;-46
2023/06/12 05:10:01;;;;;;;8.00;5.18;;;;;;;21.40;83.52;101496.97;5086329;28;20028;-45
2023/06/12 05:12:26;;;;;;;15.68;5.30;;;;;;;21.41;84.52;101491.25;5079008;28;20024;-46
2023/06/12 05:14:52;;;;;;;10.43;5.50;;;;;;;21.52;84.08;101486.84;5089384;28;20028;-45
2023/06/12 05:17:17;;;;;;;14.00;5.05;;;;;;;21.62;83.66;101499.94;5083065;28;20431;-45
2023/06/12 05:19:43;;;;;;;13.73;5.70;;;;;;;21.66;83.25;101493.72;5075886;28;20028;-48
2023/06/12 05:22:08;;;;;;;16.13;5.72;;;;;;;21.74;83.51;101494.44;5073491;28;20040;-47
2023/06/12 05:24:34;;;;;;;13.45;5.97;;;;;;;21.79;84.88;101491.81;5084343;28;20474;-48
2023/06/12 05:27:00;;;;;;;25.30;6.70;;;;;;;21.92;84.15;101488.81;5077109;28;20024;-45
2023/06/12 05:29:26;;;;;;;31.85;7.40;;;;;;;22.06;83.66;101495.66;5078327;28;20021;-44
2023/06/12 05:31:52;;;;;;;21.73;6.60;;;;;;;22.14;82.16;101495.31;5083064;28;20062;-43
2023/06/12 05:34:17;;;;;;;10.07;5.53;;;;;;;22.21;79.53;101499.84;5093049;28;20482;-46
2023/06/12 05:36:42;;;;;;;12.07;6.10;;;;;;;22.33;79.84;101501.47;5075950;28;20033;-44
2023/06/12 05:39:08;;;;;;;9.90;5.32;;;;;;;22.39;78.59;101504.31;5088769;28;20044;-45
2023/06/12 05:41:34;;;;;;;17.67;6.35;;;;;;;22.50;76.77;101503.44;5079577;28;20024;-45
2023/06/12 05:44:01;;;;;;;22.95;6.28;;;;;;;22.55;78.46;101501.59;5077445;28;20021;-44
2023/06/12 05:46:27;;;;;;;23.17;6.38;;;;;;;22.64;80.00;101498.47;5091218;28;20028;-44
2023/06/12 05:48:52;;;;;;;23.52;6.97;;;;;;;22.69;77.88;101498.56;5096147;28;20363;-47
2023/06/12 05:51:17;;;;;;;12.07;5.93;;;;;;;22.79;79.38;101499.56;5095303;28;20066;-45
2023/06/12 05:53:47;;;;;;;17.95;5.72;;;;;;;22.85;79.09;101500.47;5088091;28;20086;-45
2023/06/12 05:56:13;;;;;;;10.20;5.68;;;;;;;22.84;76.86;101498.00;5088393;28;20040;-45
2023/06/12 05:58:40;;;;;;;10.38;5.78;;;;;;;22.94;76.05;101498.19;5096026;28;20444;-49
2023/06/12 06:01:06;;;;;;;;;;;;;;;23.15;75.98;101504.88;5092241;28;20024;-45
2023/06/12 06:03:33;;;;;;;14.32;5.43;;;;;;;23.16;74.86;101496.38;5096486;28;19962;-45
2023/06/12 06:05:59;;;;;;;13.70;6.53;;;;;;;23.21;74.95;101504.69;5087640;28;20043;-45
2023/06/12 06:08:25;;;;;;;20.33;5.85;;;;;;;23.28;74.72;101509.22;5088565;28;20020;-47
2023/06/12 06:10:50;;;;;;;12.02;5.65;;;;;;;23.32;74.26;101505.69;5096076;28;20390;-45
2023/06/12 06:13:15;;;;;;;14.85;5.55;;;;;;;23.45;73.75;101505.34;5090982;28;20031;-49
2023/06/12 06:15:41;;;;;;;12.15;5.43;;;;;;;23.38;71.65;101504.69;5088863;28;20029;-46
2023/06/12 06:18:06;;;;;;;12.25;5.63;;;;;;;23.51;70.58;101508.16;5079785;28;20038;-46
2023/06/12 06:20:33;;;;;;;12.65;5.75;;;;;;;23.75;69.96;101504.16;5095433;28;20017;-46
2023/06/12 06:22:59;;;;;;;10.32;5.78;;;;;;;23.97;68.96;101511.59;5092250;28;20060;-45
2023/06/12 06:25:28;;;;;;;10.38;5.80;;;;;;;24.15;65.98;101500.28;5076333;28;20166;-46
2023/06/12 06:27:53;;;;;;;9.07;5.60;;;;;;;24.49;65.43;101511.97;5076137;28;20513;-45
2023/06/12 06:30:19;;;;;;;16.48;5.20;;;;;;;24.58;61.80;101512.31;5080548;28;20029;-47
2023/06/12 06:32:46;;;;;;;13.38;5.35;;;;;;;24.80;61.84;101505.91;5070625;28;20103;-46
2023/06/12 06:35:12;;;;;;;7.15;4.70;;;;;;;24.91;61.44;101505.75;5047411;28;20208;-49
2023/06/12 06:37:37;;;;;;;10.95;5.13;;;;;;;25.02;60.76;101503.94;5081631;28;20019;-46
2023/06/12 06:40:05;;;;;;;14.32;5.32;;;;;;;25.12;60.83;101504.00;5080887;28;20118;-47
2023/06/12 06:42:30;;;;;;;;;;;;;;;25.21;59.82;101509.88;5082522;28;20093;-47
2023/06/12 06:44:55;;;;;;;13.02;5.50;;;;;;;25.24;58.92;101514.03;5083875;28;20343;-49
2023/06/12 06:47:21;;;;;;;8.95;5.22;;;;;;;25.27;59.39;101510.75;5082472;28;20501;-48
2023/06/12 06:49:46;;;;;;;13.25;4.72;;;;;;;25.16;58.08;101515.34;5080060;28;20020;-46
2023/06/12 06:52:12;;;;;;;16.20;4.97;;;;;;;25.22;58.91;101518.97;5081983;28;20111;-45
2023/06/12 06:54:37;;;;;;;12.93;5.13;;;;;;;25.26;56.79;101522.88;5081428;28;20138;-47
2023/06/12 06:57:03;;;;;;;9.98;4.43;;;;;;;25.16;56.88;101518.09;5082780;28;20173;-45
2023/06/12 06:59:29;;;;;;;8.73;5.05;;;;;;;25.61;57.09;101523.09;5068270;28;20052;-46
2023/06/12 07:01:54;;;;;;;15.55;5.10;;;;;;;25.97;54.14;101534.38;5084198;28;20335;-49
2023/06/12 07:04:19;;;;;;;9.63;5.28;;;;;;;26.53;53.15;101524.66;5066815;28;20036;-45
2023/06/12 07:06:45;;;;;;;9.57;4.97;;;;;;;27.54;49.42;101528.56;5083557;28;20032;-47
2023/06/12 07:09:11;;;;;;;13.48;5.28;;;;;;;28.28;48.20;101526.97;5083140;28;20055;-46
2023/06/12 07:11:37;;;;;;;6.93;5.10;;;;;;;28.93;46.59;101529.63;5084996;28;20393;-45
2023/06/12 07:14:03;;;;;;;18.70;4.85;;;;;;;29.38;43.78;101530.38;5085048;28;20503;-45
2023/06/12 07:16:29;;;;;;;7.65;5.25;;;;;;;29.95;42.80;101528.66;5063906;28;20344;-45
2023/06/12 07:18:55;;;;;;;9.52;5.07;;;;;;;29.45;43.27;101528.09;5082243;28;20048;-46
2023/06/12 07:21:20;;;;;;;11.13;5.07;;;;;;;30.13;41.42;101523.47;5084002;28;20420;-46
2023/06/12 07:23:45;;;;;;;12.03;4.87;;;;;;;30.92;40.36;101528.50;5087421;28;20052;-45
2023/06/12 07:26:11;;;;;;;15.60;4.90;;;;;;;31.44;39.35;101534.84;5086318;28;20111;-46
2023/06/12 07:28:37;;;;;;;12.73;5.17;;;;;;;32.04;37.63;101536.75;5085611;28;20544;-45
2023/06/12 07:31:02;;;;;;;10.93;4.93;;;;;;;32.61;36.87;101528.00;5088022;28;20036;-46
2023/06/12 07:33:27;;;;;;;15.50;4.93;;;;;;;32.65;35.81;101526.22;5085825;28;20482;-47
2023/06/12 07:35:53;;;;;;;13.40;4.93;;;;;;;32.86;35.14;101521.81;5083716;28;20036;-45
2023/06/12 07:38:19;;;;;;;11.07;4.53;;;;;;;33.39;35.05;101529.41;5085382;28;20026;-47
2023/06/12 07:40:44;;;;;;;11.45;4.80;;;;;;;32.71;35.23;101536.13;5068261;28;20100;-44
2023/06/12 07:43:09;;;;;;;12.43;5.30;;;;;;;33.20;35.37;101535.22;5087163;28;20133;-45
2023/06/12 07:45:35;;;;;;;9.23;4.67;;;;;;;34.17;33.17;101526.13;5083876;28;20024;-46
2023/06/12 07:48:00;;;;;;;12.80;4.77;;;;;;;34.23;32.23;101523.97;5082904;28;20486;-46
2023/06/12 07:50:26;;;;;;;5.93;4.77;;;;;;;33.79;33.23;101523.84;5084684;28;20399;-47
2023/06/12 07:52:52;;;;;;;17.00;4.77;;;;;;;32.88;33.24;101527.06;5083066;28;20490;-47
2023/06/12 07:55:18;;;;;;;16.77;4.57;;;;;;;32.82;33.84;101523.59;5082582;28;20363;-47
2023/06/12 07:57:43;;;;;;;14.68;5.43;;;;;;;33.13;34.82;101520.06;5082685;28;20027;-49
2023/06/12 08:00:09;;;;;;;49.73;7.40;;;;;;;34.14;33.34;101515.59;5063001;28;20048;-47
2023/06/12 08:02:35;;;;;;;13.95;4.60;;;;;;;33.48;33.04;101515.50;5083930;28;20051;-46
2023/06/12 08:05:03;;;;;;;18.08;5.38;;;;;;;33.84;32.46;101520.09;5085214;28;20028;-44
2023/06/12 08:07:30;;;;;;;10.50;4.40;;;;;;;34.17;31.61;101520.53;5068289;28;20494;-44
2023/06/12 08:09:56;;;;;;;12.52;4.93;;;;;;;34.81;30.26;101517.16;5085062;28;20508;-45
2023/06/12 08:12:21;;;;;;;10.33;4.83;;;;;;;35.92;28.59;101519.16;5084701;28;20024;-45
2023/06/12 08:14:47;;;;;;;15.97;4.77;;;;;;;35.98;26.16;101514.97;5083874;28;20028;-48
2023/06/12 08:17:13;;;;;;;11.70;4.40;;;;;;;35.56;26.17;101517.63;5085790;28;20055;-46
2023/06/12 08:19:40;;;;;;;10.15;5.13;;;;;;;35.10;26.54;101530.47;5086219;28;20024;-46
2023/06/12 08:22:07;;;;;;;7.53;4.50;;;;;;;35.33;26.42;101516.22;5084910;28;20024;-43
2023/06/12 08:24:33;;;;;;;8.88;4.60;;;;;;;35.13;27.26;101527.00;5085374;28;20036;-46
2023/06/12 08:26:59;;;;;;;12.85;4.70;;;;;;;35.20;26.85;101520.06;5086286;28;20043;-51
2023/06/12 08:29:25;;;;;;;9.98;4.65;;;;;;;34.33;27.72;101517.28;5084195;28;20040;-48
2023/06/12 08:31:51;;;;;;;8.60;4.72;;;;;;;34.92;28.63;101518.44;5083825;28;20133;-45
2023/06/12 08:34:16;;;;;;;8.30;4.20;;;;;;;36.12;26.13;101513.94;5088293;28;20050;-47
2023/06/12 08:36:41;;;;;;;11.17;4.77;;;;;;;36.53;24.11;101515.94;5085092;28;20027;-44
2023/06/12 08:39:07;;;;;;;13.37;4.87;;;;;;;36.51;23.04;101511.84;5085560;28;20101;-46
2023/06/12 08:41:34;;;;;;;10.93;4.60;;;;;;;36.29;23.08;101513.81;5086293;28;20020;-45
2023/06/12 08:44:00;;;;;;;14.80;5.07;;;;;;;35.89;23.76;101510.56;5084039;28;20040;-46
2023/06/12 08:46:29;;;;;;;15.07;5.03;;;;;;;35.99;24.06;101510.19;5084431;28;20036;-46
2023/06/12 08:48:55;;;;;;;11.82;5.03;;;;;;;35.44;24.15;101511.91;5085153;28;20552;-45
2023/06/12 08:51:20;;;;;;;9.07;4.68;;;;;;;35.49;24.12;101511.72;5067712;28;20093;-46
2023/06/12 08:53:47;;;;;;;18.10;4.63;;;;;;;35.68;23.35;101510.53;5084952;28;20546;-44
2023/06/12 08:56:13;;;;;;;6.15;4.75;;;;;;;34.81;24.28;101493.94;5085755;28;20103;-43
2023/06/12 08:58:40;;;;;;;14.82;4.95;;;;;;;35.07;25.00;101503.13;5083361;28;20577;-45
2023/06/12 09:01:07;;;;;;;11.98;4.30;;;;;;;35.25;24.06;101497.50;5084272;28;20085;-46
2023/06/12 09:03:35;;;;;;;16.05;4.95;;;;;;;36.01;23.52;101497.50;5085844;28;20377;-47
2023/06/12 09:06:05;;;;;;;6.75;3.83;;;;;;;36.26;22.39;101500.50;5085506;28;20036;-47
2023/06/12 09:08:30;;;;;;;10.15;4.88;;;;;;;36.10;22.63;101499.44;5085380;28;20474;-48
2023/06/12 09:10:57;;;;;;;10.07;4.47;;;;;;;35.94;22.90;101501.97;5083498;28;20345;-47
2023/06/12 09:13:22;;;;;;;6.68;3.90;;;;;;;35.44;22.52;101491.50;5085401;28;20036;-45
2023/06/12 09:15:52;;;;;;;13.17;4.20;;;;;;;35.33;23.67;101499.44;5082637;28;20082;-45
2023/06/12 09:18:19;;;;;;;12.20;4.85;;;;;;;35.00;22.98;101497.22;5079887;28;20505;-45
2023/06/12 09:20:44;;;;;;;17.92;4.60;;;;;;;34.72;24.07;101497.56;5079980;28;20389;-45
2023/06/12 09:23:11;;;;;;;10.20;4.50;;;;;;;35.59;23.75;101502.97;5082751;28;20020;-44
2023/06/12 09:25:39;;;;;;;;;;;;;;;35.65;23.37;101505.59;5084206;28;20036;-47
2023/06/12 09:28:05;;;;;;;11.63;4.22;;;;;;;35.22;23.59;101504.59;5084410;28;20006;-45
2023/06/12 09:30:38;;;;;;;9.60;4.27;;;;;;;35.49;23.89;101503.31;5084454;28;20147;-45
2023/06/12 09:33:03;;;;;;;6.65;4.53;;;;;;;35.91;22.84;101500.69;5084699;28;20032;-46
2023/06/12 09:35:29;;;;;;;7.83;4.73;;;;;;;35.55;22.77;101504.00;5067724;28;20035;-47
2023/06/12 09:37:56;;;;;;;15.33;4.60;;;;;;;35.06;23.19;101493.06;5081685;28;20461;-48
2023/06/12 09:40:21;;;;;;;7.10;4.47;;;;;;;34.52;23.66;101492.59;5083697;28;20032;-45
2023/06/12 09:42:48;;;;;;;18.70;4.73;;;;;;;34.24;23.58;101489.34;5084904;28;20107;-46
2023/06/12 09:45:16;;;;;;;6.25;4.32;;;;;;;34.05;24.13;101495.19;5084297;28;20028;-44
2023/06/12 09:47:46;;;;;;;9.77;4.72;;;;;;;34.16;23.71;101490.97;5074383;28;20667;-45
2023/06/12 09:50:13;;;;;;;10.68;4.30;;;;;;;34.36;23.27;101499.84;5078415;28;20020;-44
2023/06/12 09:52:48;;;;;;;8.38;4.57;;;;;;;33.99;23.52;101502.06;5066609;28;20500;-45
2023/06/12 09:55:16;;;;;;;6.97;4.38;;;;;;;34.04;23.13;101511.09;5083492;28;20331;-45
2023/06/12 09:57:52;;;;;;;7.70;4.30;;;;;;;34.20;22.98;101502.28;5083290;28;20028;-43
2023/06/12 10:00:19;;;;;;;6.95;4.43;;;;;;;34.19;23.98;101504.28;5082694;28;20428;-46
2023/06/12 10:02:52;;;;;;;;;;;;;;;34.53;23.33;101506.25;5057410;28;20032;-46
2023/06/12 10:05:27;;;;;;;11.63;5.05;;;;;;;34.62;23.18;101502.69;5080785;28;19951;-45
2023/06/12 10:07:54;;;;;;;14.02;4.40;;;;;;;34.96;22.97;101504.59;5083147;28;20047;-47
2023/06/12 10:10:21;;;;;;;12.75;4.82;;;;;;;35.69;22.38;101500.97;5086749;28;20543;-44
2023/06/12 10:12:47;;;;;;;10.40;4.15;;;;;;;34.32;22.75;101505.28;5069368;28;20048;-45
2023/06/12 10:15:14;;;;;;;11.02;4.45;;;;;;;34.60;23.19;101500.22;5086443;28;20421;-44
2023/06/12 10:17:40;;;;;;;6.38;4.82;;;;;;;34.83;22.82;101488.84;5068554;28;20448;-46
2023/06/12 10:20:08;;;;;;;19.58;4.60;;;;;;;35.58;22.31;101495.75;5088259;28;20020;-45
2023/06/12 10:22:34;;;;;;;4.60;4.20;;;;;;;35.78;21.10;101490.53;5087773;28;20023;-45
2023/06/12 10:24:59;;;;;;;4.37;3.83;;;;;;;35.73;21.50;101496.31;5088273;28;20097;-45
2023/06/12 10:27:25;;;;;;;8.67;4.70;;;;;;;35.25;21.55;101489.09;5086924;28;20040;-46
2023/06/12 10:30:00;;;;;;;9.10;4.57;;;;;;;34.99;22.21;101489.97;5088542;28;20475;-49
2023/06/12 10:32:31;;;;;;;7.85;4.65;;;;;;;35.03;23.28;101502.13;5089048;28;20051;-46
2023/06/12 10:34:57;;;;;;;10.50;4.35;;;;;;;34.64;23.44;101495.59;5086526;28;20028;-49
2023/06/12 10:37:27;;;;;;;7.05;4.57;;;;;;;34.69;24.44;101492.63;5087567;28;20047;-48
2023/06/12 10:40:02;;;;;;;13.05;4.35;;;;;;;35.26;23.41;101487.94;5084946;28;20036;-45
2023/06/12 10:43:01;;;;;;;9.15;5.05;;;;;;;35.23;23.34;101488.59;5080444;28;20039;-46
2023/06/12 10:45:28;;;;;;;7.28;4.32;;;;;;;35.12;23.16;101491.75;5077675;28;20551;-45
2023/06/12 10:48:05;;;;;;;5.65;4.25;;;;;;;34.82;23.77;101487.22;5079635;28;20044;-45
2023/06/12 10:50:46;;;;;;;8.68;4.55;;;;;;;34.57;23.80;101481.28;5078711;28;20378;-46
2023/06/12 10:53:13;;;;;;;4.70;4.18;;;;;;;34.40;24.07;101476.50;5085195;28;20464;-46
2023/06/12 10:55:38;;;;;;;4.72;4.22;;;;;;;34.44;23.59;101479.47;5086794;28;20047;-49
2023/06/12 10:58:15;;;;;;;5.80;4.40;;;;;;;34.81;23.86;101471.56;5080579;28;20485;-44
2023/06/12 11:00:47;;;;;;;9.50;4.40;;;;;;;35.38;22.36;101474.88;5081191;28;20182;-49
2023/06/12 11:03:16;;;;;;;6.88;4.10;;;;;;;35.63;21.40;101468.72;5083628;28;20431;-45
2023/06/12 11:06:13;;;;;;;5.30;4.32;;;;;;;35.51;21.42;101489.81;5086702;28;20446;-47
2023/06/12 11:08:40;;;;;;;11.40;4.30;;;;;;;35.18;21.69;101468.06;5079731;28;20040;-47
2023/06/12 11:11:07;;;;;;;12.50;4.50;;;;;;;35.03;21.68;101468.56;5084643;28;20028;-46
2023/06/12 11:13:32;;;;;;;;;;;;;;;35.15;22.11;101470.69;5085325;28;20111;-44
2023/06/12 11:15:57;;;;;;;7.67;4.47;;;;;;;35.39;21.16;101472.94;5085351;28;20065;-46
2023/06/12 11:18:23;;;;;;;5.43;3.83;;;;;;;35.31;21.21;101468.16;5084801;28;20127;-47
2023/06/12 11:20:55;;;;;;;16.50;4.13;;;;;;;35.56;21.06;101464.44;5086161;28;20039;-45